Currently 63°F in Simi Valley, California, USA
63°F
77°F / 51°F
4 mph W
0.00"
Saturday, May 2, 2026 8:31 PM PDT

Simi Valley, California Weather Summary
Last 36 Hours

Temperature Winds Hourly Humidity Dewpoint
Time Report Norm Report Norm Max Gusts Precip. Rpt. Norm Rpt. Norm Pressure
1Sat 08:31 PM  63.2°F  64°F  4 mph W  2 mph  8 mph  0.00"  76%  60%  55°F  49°F  29.82"
Sat 08:00 PM  64.7°F  65°F  3 mph W  3 mph  11 mph  0.00"  73%  58%  55°F  50°F  29.81"
Sat 07:00 PM  70.1°F  69°F  4 mph W  5 mph  none  0.00"  62%  52%  56°F  50°F  29.79"
Sat 06:00 PM  74.8°F  71°F  2 mph W  6 mph  9 mph  0.00"  55%  48%  57°F  50°F  29.79"
Sat 05:00 PM  75.0°F  72°F  5 mph SW  7 mph  11 mph  0.00"  54%  46%  57°F  50°F  29.79"
Sat 04:00 PM  74.2°F  74°F  8 mph SW  7 mph  14 mph  0.00"  56%  44%  57°F  50°F  29.81"
Sat 03:00 PM  75.3°F  74°F  7 mph W  7 mph  16 mph  0.00"  54%  44%  57°F  50°F  29.84"
2Sat 02:38 PM  76.8°F  74°F  7 mph W  7 mph  13 mph  ----  52%  44%  57°F  50°F  29.85"
Sat 02:00 PM  76.0°F  75°F  5 mph SW  7 mph  16 mph  0.00"  52%  44%  57°F  50°F  29.86"
Sat 01:00 PM  74.8°F  74°F  2 mph SW  6 mph  13 mph  0.00"  56%  44%  57°F  50°F  29.88"
Sat 12:00 PM  72.0°F  73°F  4 mph W  6 mph  9 mph  0.00"  58%  46%  56°F  50°F  29.91"
Sat 11:00 AM  67.2°F  70°F  calm  5 mph  7 mph  0.00"  71%  49%  57°F  50°F  29.92"
Sat 10:00 AM  63.6°F  67°F  3 mph S  4 mph  10 mph  0.00"  79%  55%  57°F  50°F  29.95"
Sat 09:00 AM  60.3°F  63°F  3 mph S  3 mph  9 mph  0.00"  87%  63%  56°F  50°F  29.93"
Sat 08:00 AM  54.9°F  59°F  1 mph NE  2 mph  5 mph  0.00"  88%  69%  51°F  48°F  29.92"
Sat 07:00 AM  51.9°F  55°F  1 mph S  2 mph  4 mph  0.00"  87%  72%  48°F  46°F  29.94"
3Sat 06:09 AM  51.0°F  55°F  1 mph SW  3 mph  4 mph  ----  86%  71%  47°F  45°F  29.93"
Sat 06:00 AM  51.2°F  55°F  1 mph N  2 mph  3 mph  0.00"  85%  71%  47°F  45°F  29.92"
Sat 05:00 AM  52.0°F  55°F  calm  2 mph  5 mph  0.00"  84%  70%  47°F  45°F  29.91"
Sat 04:00 AM  52.9°F  56°F  1 mph SE  2 mph  5 mph  0.00"  83%  70%  48°F  45°F  29.89"
Sat 03:00 AM  54.0°F  56°F  4 mph NW  3 mph  7 mph  0.00"  82%  69%  48°F  46°F  29.88"
Sat 02:00 AM  55.7°F  57°F  3 mph NW  2 mph  7 mph  0.00"  81%  68%  50°F  46°F  29.88"
Sat 01:00 AM  56.6°F  57°F  2 mph E  2 mph  7 mph  0.00"  81%  68%  51°F  46°F  29.89"
Sat 12:00 AM  56.8°F  58°F  calm  2 mph  6 mph  0.00"  81%  67%  51°F  47°F  29.89"
Fri 11:00 PM  57.8°F  59°F  3 mph SW  2 mph  4 mph  0.00"  81%  65%  52°F  47°F  29.89"
Fri 10:00 PM  59.0°F  60°F  2 mph N  2 mph  7 mph  0.00"  82%  64%  53°F  48°F  29.89"
Fri 09:00 PM  60.6°F  63°F  4 mph W  2 mph  10 mph  0.00"  80%  62%  54°F  49°F  29.88"
Fri 08:00 PM  64.0°F  65°F  6 mph W  3 mph  10 mph  0.00"  73%  58%  55°F  49°F  29.86"
Fri 07:00 PM  68.8°F  69°F  5 mph W  5 mph  10 mph  0.00"  63%  51%  55°F  50°F  29.84"
Fri 06:00 PM  70.7°F  71°F  5 mph W  6 mph  16 mph  0.00"  60%  48%  56°F  50°F  29.84"
Fri 05:00 PM  71.5°F  73°F  8 mph W  7 mph  16 mph  0.00"  59%  46%  56°F  50°F  29.84"
Fri 04:00 PM  74.5°F  74°F  9 mph W  7 mph  16 mph  0.00"  53%  44%  56°F  50°F  29.84"
Fri 03:00 PM  75.7°F  75°F  2 mph W  7 mph  14 mph  0.00"  51%  43%  55°F  50°F  29.86"
Fri 02:00 PM  75.2°F  75°F  5 mph W  7 mph  14 mph  0.00"  52%  43%  56°F  50°F  29.88"
Fri 01:00 PM  73.9°F  74°F  5 mph W  6 mph  14 mph  0.00"  55%  44%  56°F  50°F  29.90"
Fri 12:00 PM  70.9°F  73°F  4 mph W  6 mph  10 mph  0.00"  60%  45%  56°F  49°F  29.92"
Fri 11:00 AM  67.5°F  70°F  calm  5 mph  10 mph  0.00"  66%  48%  56°F  49°F  29.94"
Fri 10:00 AM  63.6°F  67°F  1 mph W  5 mph  6 mph  0.00"  79%  55%  57°F  49°F  29.95"
Fri 09:00 AM  59.7°F  63°F  calm  3 mph  8 mph  0.00"  85%  63%  55°F  49°F  29.95"

  1. Current weather data. No green row appears if the current weather data is also the high or low for the current day.
  2. High temperature for the current day.
  3. Low temperature for the current day.

The Simi Valley, California weather pages are a service of WeatherCurrents.
Copyright ©Sat May 02 20:32:18 PDT 2026  WeatherCurrents. All rights reserved. - Submit questions and comments - Privacy Policy

This page automatically refreshes every 10 minutes.